createdAt,value
2022-09-01T00:01:54.510Z,62.66
2022-09-01T00:04:27.146Z,62.59
2022-09-01T00:06:56.506Z,62.38
2022-09-01T00:09:24.574Z,62.75
2022-09-01T00:11:54.778Z,62.30
2022-09-01T00:14:29.657Z,62.47
2022-09-01T00:16:58.872Z,62.59
2022-09-01T00:19:29.665Z,62.35
2022-09-01T00:21:57.877Z,62.07
2022-09-01T00:24:26.556Z,62.10
2022-09-01T00:26:55.772Z,62.29
2022-09-01T00:29:24.857Z,62.36
2022-09-01T00:31:53.123Z,62.77
2022-09-01T00:34:21.299Z,62.29
2022-09-01T00:36:50.652Z,62.30
2022-09-01T00:39:18.327Z,61.89
2022-09-01T00:41:47.240Z,62.40
2022-09-01T00:44:18.886Z,62.44
2022-09-01T00:46:51.115Z,62.25
2022-09-01T00:49:29.789Z,62.46
2022-09-01T00:52:05.243Z,62.96
2022-09-01T00:54:37.050Z,63.06
2022-09-01T00:57:05.706Z,63.25
2022-09-01T00:59:34.059Z,62.94
2022-09-01T01:02:01.672Z,62.94
2022-09-01T01:04:30.188Z,62.96
2022-09-01T01:07:03.118Z,63.32
2022-09-01T01:09:35.263Z,62.89
2022-09-01T01:12:05.872Z,63.31
2022-09-01T01:14:39.985Z,63.40
2022-09-01T01:17:07.919Z,63.52
2022-09-01T01:19:59.905Z,63.85
2022-09-01T01:22:53.673Z,64.06
2022-09-01T01:25:23.921Z,64.29
2022-09-01T01:27:52.067Z,64.43
2022-09-01T01:30:23.631Z,63.98
2022-09-01T01:32:51.897Z,63.75
2022-09-01T01:35:23.349Z,63.91
2022-09-01T01:37:51.827Z,63.99
2022-09-01T01:40:23.041Z,64.10
2022-09-01T01:42:53.090Z,64.48
2022-09-01T01:45:23.708Z,64.42
2022-09-01T01:47:54.090Z,64.16
2022-09-01T01:50:23.600Z,64.07
2022-09-01T01:52:58.353Z,64.34
2022-09-01T01:55:29.082Z,64.44
2022-09-01T01:57:57.480Z,64.99
2022-09-01T02:00:30.593Z,64.97
2022-09-01T02:02:59.916Z,65.19
2022-09-01T02:05:30.289Z,65.05
2022-09-01T02:08:04.838Z,65.11
2022-09-01T02:10:36.567Z,64.88
2022-09-01T02:13:07.700Z,64.85
2022-09-01T02:15:43.185Z,64.74
2022-09-01T02:18:14.388Z,64.88
2022-09-01T02:20:42.283Z,64.76
2022-09-01T02:23:10.775Z,65.00
2022-09-01T02:26:05.137Z,65.10
2022-09-01T02:28:36.756Z,65.45
2022-09-01T02:31:05.936Z,65.22
2022-09-01T02:33:33.715Z,65.35
2022-09-01T02:36:04.041Z,65.67
2022-09-01T02:38:33.860Z,65.89
2022-09-01T02:41:04.237Z,65.87
2022-09-01T02:43:33.756Z,66.03
2022-09-01T02:46:02.999Z,66.07
2022-09-01T02:48:35.768Z,66.11
2022-09-01T02:51:05.429Z,65.99
2022-09-01T02:53:35.451Z,66.52
2022-09-01T02:56:09.325Z,67.04
2022-09-01T02:58:40.807Z,67.10
2022-09-01T03:01:13.514Z,67.00
2022-09-01T03:03:41.258Z,66.82
2022-09-01T03:06:10.107Z,66.52
2022-09-01T03:08:40.029Z,67.00
2022-09-01T03:11:12.985Z,67.14
2022-09-01T03:13:42.217Z,67.46
2022-09-01T03:16:11.701Z,67.01
2022-09-01T03:18:40.526Z,67.03
2022-09-01T03:21:08.963Z,67.42
2022-09-01T03:23:37.948Z,67.23
2022-09-01T03:26:06.376Z,67.65
2022-09-01T03:28:35.301Z,67.79
2022-09-01T03:31:02.935Z,67.92
2022-09-01T03:33:30.988Z,68.29
2022-09-01T03:35:58.649Z,68.14
2022-09-01T03:38:27.438Z,67.94
2022-09-01T03:40:58.936Z,68.03
2022-09-01T03:43:27.818Z,68.00
2022-09-01T03:46:05.302Z,68.26
2022-09-01T03:48:33.331Z,67.98
2022-09-01T03:51:02.853Z,67.95
2022-09-01T03:53:32.414Z,68.58
2022-09-01T03:56:00.282Z,68.70
2022-09-01T03:58:28.230Z,68.27
2022-09-01T04:00:58.315Z,68.35
2022-09-01T04:03:31.834Z,69.26
2022-09-01T04:06:00.466Z,68.94
2022-09-01T04:08:32.634Z,69.17
2022-09-01T04:11:03.919Z,69.23
2022-09-01T04:13:36.420Z,69.36
2022-09-01T04:16:10.451Z,68.80
2022-09-01T04:18:40.052Z,69.00
2022-09-01T04:21:10.520Z,69.10
2022-09-01T04:23:38.252Z,68.83
2022-09-01T04:26:10.097Z,69.04
2022-09-01T04:28:39.616Z,69.38
2022-09-01T04:31:10.318Z,69.50
2022-09-01T04:33:39.996Z,69.42
2022-09-01T04:36:19.296Z,69.04
2022-09-01T04:38:47.321Z,69.13
2022-09-01T04:41:17.816Z,69.26
2022-09-01T04:43:47.414Z,69.23
2022-09-01T04:46:15.135Z,69.29
2022-09-01T04:48:45.992Z,69.22
2022-09-01T04:51:15.396Z,69.21
2022-09-01T04:53:48.722Z,69.48
2022-09-01T04:56:19.446Z,70.02
2022-09-01T04:58:48.116Z,70.29
2022-09-01T05:01:18.414Z,69.97
2022-09-01T05:04:01.512Z,70.09
2022-09-01T05:06:33.889Z,69.64
2022-09-01T05:09:01.514Z,69.76
2022-09-01T05:11:29.514Z,69.24
2022-09-01T05:13:58.904Z,68.13
2022-09-01T05:16:36.013Z,67.61
2022-09-01T05:19:05.524Z,66.87
2022-09-01T05:21:33.250Z,66.82
2022-09-01T05:24:01.913Z,66.42
2022-09-01T05:26:34.559Z,66.11
2022-09-01T05:29:10.585Z,65.71
2022-09-01T05:31:38.883Z,65.85
2022-09-01T05:34:09.776Z,65.78
2022-09-01T05:36:42.251Z,65.56
2022-09-01T05:39:12.087Z,65.43
2022-09-01T05:41:41.046Z,65.10
2022-09-01T05:44:11.155Z,64.74
2022-09-01T05:46:40.204Z,63.96
2022-09-01T05:49:16.215Z,63.52
2022-09-01T05:51:50.560Z,62.83
2022-09-01T05:54:21.466Z,63.12
2022-09-01T05:56:49.874Z,63.33
2022-09-01T05:59:25.299Z,62.84
2022-09-01T06:01:54.420Z,60.03
2022-09-01T06:04:25.247Z,58.10
2022-09-01T06:07:05.652Z,56.95
2022-09-01T06:09:38.132Z,56.04
2022-09-01T06:12:06.960Z,57.06
2022-09-01T06:14:34.985Z,57.15
2022-09-01T06:17:03.154Z,57.72
2022-09-01T06:19:36.960Z,59.04
2022-09-01T06:22:05.757Z,59.57
2022-09-01T06:24:33.705Z,59.28
2022-09-01T06:27:01.288Z,60.47
2022-09-01T06:29:31.182Z,59.95
2022-09-01T06:32:02.238Z,60.07
2022-09-01T06:34:30.032Z,59.30
2022-09-01T06:36:59.788Z,59.19
2022-09-01T06:39:27.411Z,57.60
2022-09-01T06:41:58.065Z,57.99
2022-09-01T06:44:25.836Z,58.72
2022-09-01T06:46:53.971Z,58.95
2022-09-01T06:49:23.442Z,59.09
2022-09-01T06:51:52.702Z,59.38
2022-09-01T06:54:21.638Z,59.10
2022-09-01T06:56:51.713Z,57.96
2022-09-01T06:59:20.658Z,57.91
2022-09-01T07:01:49.456Z,56.48
2022-09-01T07:04:22.092Z,56.93
2022-09-01T07:09:50.069Z,56.68
2022-09-01T07:12:29.980Z,53.96
2022-09-01T07:17:50.051Z,51.20
2022-09-01T07:20:26.064Z,51.21
2022-09-01T07:23:11.021Z,51.83
2022-09-01T07:26:02.245Z,51.22
2022-09-01T07:28:40.493Z,51.10
2022-09-01T07:39:50.941Z,51.35
2022-09-01T07:42:31.117Z,55.97
2022-09-01T07:45:26.645Z,51.72
2022-09-01T07:47:55.100Z,50.47
2022-09-01T07:51:34.343Z,50.00
2022-09-01T07:53:12.793Z,49.13
2022-09-01T07:55:42.186Z,48.70
2022-09-01T07:58:13.542Z,47.55
2022-09-01T08:00:43.281Z,47.10
2022-09-01T08:03:11.060Z,46.73
2022-09-01T08:05:38.816Z,47.83
2022-09-01T08:08:28.399Z,47.12
2022-09-01T08:11:04.333Z,46.33
2022-09-01T08:13:38.818Z,45.18
2022-09-01T08:16:17.027Z,45.53
2022-09-01T08:18:48.826Z,46.60
2022-09-01T08:21:18.102Z,47.81
2022-09-01T08:23:45.863Z,48.16
2022-09-01T08:26:16.435Z,47.42
2022-09-01T08:28:54.380Z,48.59
2022-09-01T08:31:24.264Z,47.80
2022-09-01T08:33:52.854Z,47.97
2022-09-01T08:36:23.941Z,48.23
2022-09-01T08:38:53.877Z,48.39
2022-09-01T08:41:35.707Z,48.57
2022-09-01T08:44:14.782Z,47.24
2022-09-01T08:46:43.806Z,47.30
2022-09-01T08:49:25.128Z,48.54
2022-09-01T08:51:59.058Z,46.75
2022-09-01T08:54:36.261Z,45.36
2022-09-01T08:57:08.008Z,44.72
2022-09-01T08:59:37.034Z,43.90
2022-09-01T09:02:17.671Z,47.02
2022-09-01T09:04:54.551Z,47.26
2022-09-01T09:07:35.108Z,46.88
2022-09-01T09:10:12.086Z,45.13
2022-09-01T09:12:57.681Z,47.00
2022-09-01T09:15:32.487Z,47.41
2022-09-01T09:18:20.071Z,47.45
2022-09-01T09:21:08.745Z,46.07
2022-09-01T09:23:43.095Z,46.43
2022-09-01T09:26:10.935Z,47.65
2022-09-01T09:28:40.117Z,47.01
2022-09-01T09:31:29.745Z,50.45
2022-09-01T09:33:59.107Z,49.07
2022-09-01T09:36:33.173Z,49.83
2022-09-01T09:39:10.346Z,51.23
2022-09-01T09:41:39.868Z,50.25
2022-09-01T09:44:19.400Z,50.53
2022-09-01T09:46:49.424Z,51.74
2022-09-01T09:49:34.256Z,51.13
2022-09-01T09:52:16.869Z,49.64
2022-09-01T09:55:01.566Z,49.74
2022-09-01T09:57:31.286Z,50.60
2022-09-01T10:00:02.770Z,50.40
2022-09-01T10:02:34.792Z,50.47
2022-09-01T10:05:23.736Z,48.32
2022-09-01T10:07:52.180Z,48.71
2022-09-01T10:10:32.281Z,48.19
2022-09-01T10:13:02.327Z,48.02
2022-09-01T10:15:33.356Z,48.28
2022-09-01T10:18:32.765Z,49.43
2022-09-01T10:21:00.547Z,47.79
2022-09-01T10:23:31.680Z,46.89
2022-09-01T10:26:05.931Z,46.15
2022-09-01T10:28:49.962Z,46.60
2022-09-01T10:31:19.786Z,46.44
2022-09-01T10:33:49.797Z,45.75
2022-09-01T10:36:19.903Z,45.33
2022-09-01T10:38:53.516Z,45.33
2022-09-01T10:42:00.136Z,46.33
2022-09-01T10:44:33.781Z,45.12
2022-09-01T10:47:06.184Z,44.33
2022-09-01T10:50:07.616Z,44.20
2022-09-01T10:52:57.163Z,45.37
2022-09-01T10:55:29.662Z,45.58
2022-09-01T10:59:31.076Z,45.78
2022-09-01T11:01:40.542Z,44.88
2022-09-01T11:03:56.583Z,44.46
2022-09-01T11:07:13.871Z,43.29
2022-09-01T11:09:43.762Z,42.58
2022-09-01T11:12:46.840Z,42.82
2022-09-01T11:15:39.168Z,42.31
2022-09-01T11:18:19.291Z,42.11
2022-09-01T11:20:48.383Z,41.45
2022-09-01T11:23:27.747Z,41.71
2022-09-01T11:28:44.644Z,41.66
2022-09-01T11:31:27.900Z,41.87
2022-09-01T11:34:13.038Z,41.12
2022-09-01T11:36:59.011Z,42.43
2022-09-01T11:39:35.843Z,41.90
2022-09-01T11:42:10.733Z,40.22
2022-09-01T11:44:45.992Z,40.26
2022-09-01T11:47:17.835Z,40.01
2022-09-01T11:49:52.866Z,40.18
2022-09-01T11:52:22.948Z,40.38
2022-09-01T11:54:52.374Z,40.60
2022-09-01T11:57:24.210Z,41.20
2022-09-01T11:59:53.229Z,40.93
2022-09-01T12:02:25.307Z,41.14
2022-09-01T12:04:55.433Z,39.94
2022-09-01T12:07:39.773Z,39.81
2022-09-01T12:10:18.390Z,39.02
2022-09-01T12:12:46.107Z,38.92
2022-09-01T12:15:21.203Z,39.25
2022-09-01T12:17:49.377Z,39.33
2022-09-01T12:20:29.638Z,40.36
2022-09-01T12:22:58.935Z,39.26
2022-09-01T12:25:30.416Z,38.60
2022-09-01T12:28:00.192Z,38.92
2022-09-01T12:30:28.699Z,39.02
2022-09-01T12:35:49.235Z,37.35
2022-09-01T12:38:30.148Z,37.49
2022-09-01T12:41:03.782Z,39.38
2022-09-01T12:43:35.477Z,40.43
2022-09-01T12:46:04.875Z,41.30
2022-09-01T12:48:35.738Z,40.29
2022-09-01T12:51:09.297Z,40.44
2022-09-01T12:53:37.274Z,39.28
2022-09-01T12:56:19.815Z,38.98
2022-09-01T12:58:52.210Z,40.96
2022-09-01T13:01:33.074Z,40.43
2022-09-01T13:04:29.962Z,39.65
2022-09-01T13:07:02.444Z,39.83
2022-09-01T13:09:30.701Z,39.80
2022-09-01T13:12:13.279Z,40.02
2022-09-01T13:14:41.137Z,39.95
2022-09-01T13:17:14.011Z,39.93
2022-09-01T13:19:42.635Z,37.77
2022-09-01T13:22:10.517Z,37.44
2022-09-01T13:24:39.659Z,36.65
2022-09-01T13:27:23.682Z,35.88
2022-09-01T13:29:53.359Z,35.65
2022-09-01T13:32:24.691Z,35.73
2022-09-01T13:34:55.010Z,34.78
2022-09-01T13:37:24.057Z,34.27
2022-09-01T13:39:52.328Z,33.13
2022-09-01T13:42:20.483Z,33.94
2022-09-01T13:44:52.465Z,33.59
2022-09-01T13:47:29.281Z,33.19
2022-09-01T13:50:08.439Z,33.06
2022-09-01T13:52:38.219Z,34.00
2022-09-01T13:55:07.574Z,35.03
2022-09-01T13:57:36.338Z,35.44
2022-09-01T14:00:06.546Z,35.08
2022-09-01T14:02:36.761Z,35.60
2022-09-01T14:05:05.119Z,35.22
2022-09-01T14:07:33.646Z,35.75
2022-09-01T14:10:01.574Z,36.37
2022-09-01T14:12:30.152Z,36.88
2022-09-01T14:15:16.999Z,37.36
2022-09-01T14:17:47.718Z,36.78
2022-09-01T14:20:18.468Z,36.90
2022-09-01T14:22:46.785Z,36.92
2022-09-01T14:25:15.622Z,37.19
2022-09-01T14:27:44.574Z,37.12
2022-09-01T14:30:16.945Z,36.31
2022-09-01T14:32:50.923Z,36.99
2022-09-01T14:35:19.973Z,36.63
2022-09-01T14:37:48.177Z,36.57
2022-09-01T14:40:18.503Z,37.03
2022-09-01T14:42:49.440Z,36.73
2022-09-01T14:45:19.469Z,35.60
2022-09-01T14:47:50.468Z,35.37
2022-09-01T14:50:22.755Z,34.52
2022-09-01T14:52:53.875Z,34.92
2022-09-01T14:55:22.558Z,34.77
2022-09-01T14:57:50.262Z,35.80
2022-09-01T15:00:18.386Z,35.39
2022-09-01T15:02:48.981Z,34.22
2022-09-01T15:05:16.873Z,34.71
2022-09-01T15:07:45.367Z,33.97
2022-09-01T15:10:25.406Z,33.89
2022-09-01T15:12:55.043Z,34.27
2022-09-01T15:15:22.874Z,35.23
2022-09-01T15:17:51.889Z,35.28
2022-09-01T15:20:37.154Z,34.99
2022-09-01T15:23:05.415Z,35.50
2022-09-01T15:25:33.214Z,34.74
2022-09-01T15:28:01.619Z,34.96
2022-09-01T15:30:29.486Z,34.40
2022-09-01T15:32:59.120Z,34.63
2022-09-01T15:35:28.831Z,35.30
2022-09-01T15:37:56.536Z,34.77
2022-09-01T15:40:26.090Z,34.69
2022-09-01T15:42:54.896Z,34.96
2022-09-01T15:45:24.710Z,35.31
2022-09-01T15:47:52.475Z,35.21
2022-09-01T15:50:27.612Z,35.27
2022-09-01T15:52:59.875Z,35.81
2022-09-01T15:55:30.807Z,35.11
2022-09-01T15:58:00.070Z,36.29
2022-09-01T16:00:28.479Z,35.79
2022-09-01T16:03:01.490Z,35.69
2022-09-01T16:05:31.548Z,36.06
2022-09-01T16:08:01.185Z,35.65
2022-09-01T16:10:32.400Z,35.61
2022-09-01T16:13:02.876Z,35.62
2022-09-01T16:15:30.481Z,35.92
2022-09-01T16:18:14.095Z,35.70
2022-09-01T16:20:55.853Z,35.27
2022-09-01T16:23:25.817Z,35.81
2022-09-01T16:25:54.712Z,35.46
2022-09-01T16:28:27.384Z,36.08
2022-09-01T16:31:00.392Z,35.61
2022-09-01T16:33:28.134Z,35.92
2022-09-01T16:36:17.606Z,36.03
2022-09-01T16:38:49.667Z,35.72
2022-09-01T16:41:36.237Z,36.77
2022-09-01T16:44:14.442Z,36.70
2022-09-01T16:46:47.823Z,36.85
2022-09-01T16:49:22.842Z,36.53
2022-09-01T16:52:01.959Z,36.63
2022-09-01T16:54:42.788Z,36.92
2022-09-01T16:57:20.828Z,37.26
2022-09-01T16:59:55.719Z,37.38
2022-09-01T17:02:38.346Z,37.50
2022-09-01T17:05:16.965Z,37.56
2022-09-01T17:07:51.993Z,37.46
2022-09-01T17:10:32.748Z,37.23
2022-09-01T17:13:17.221Z,36.85
2022-09-01T17:15:50.311Z,36.98
2022-09-01T17:18:30.550Z,37.73
2022-09-01T17:21:03.856Z,37.94
2022-09-01T17:23:40.530Z,37.86
2022-09-01T17:26:16.482Z,37.76
2022-09-01T17:28:51.965Z,38.19
2022-09-01T17:31:34.556Z,38.04
2022-09-01T17:34:12.026Z,38.60
2022-09-01T17:36:48.489Z,38.27
2022-09-01T17:39:30.275Z,38.94
2022-09-01T17:42:00.969Z,38.32
2022-09-01T17:44:36.831Z,38.50
2022-09-01T17:47:11.995Z,38.69
2022-09-01T17:49:50.456Z,38.98
2022-09-01T17:52:23.724Z,39.55
2022-09-01T17:54:59.533Z,39.49
2022-09-01T17:57:38.772Z,39.59
2022-09-01T18:00:10.671Z,39.63
2022-09-01T18:02:58.471Z,40.14
2022-09-01T18:05:27.655Z,40.06
2022-09-01T18:08:18.231Z,39.86
2022-09-01T18:10:51.907Z,40.06
2022-09-01T18:13:36.152Z,40.17
2022-09-01T18:16:13.657Z,40.32
2022-09-01T18:18:44.337Z,40.30
2022-09-01T18:21:15.001Z,40.50
2022-09-01T18:23:44.915Z,40.76
2022-09-01T18:26:27.190Z,40.82
2022-09-01T18:28:55.397Z,41.46
2022-09-01T18:31:42.219Z,42.15
2022-09-01T18:34:18.627Z,41.76
2022-09-01T18:36:55.044Z,42.23
2022-09-01T18:39:28.734Z,41.70
2022-09-01T18:42:11.881Z,42.37
2022-09-01T18:44:48.830Z,42.54
2022-09-01T18:47:18.244Z,42.62
2022-09-01T18:49:58.296Z,43.03
2022-09-01T18:52:47.065Z,43.26
2022-09-01T18:55:23.419Z,42.94
2022-09-01T18:57:55.708Z,43.58
2022-09-01T19:00:30.549Z,43.24
2022-09-01T19:03:07.700Z,43.68
2022-09-01T19:05:59.216Z,43.81
2022-09-01T19:08:40.912Z,43.63
2022-09-01T19:11:16.973Z,44.07
2022-09-01T19:13:59.352Z,43.93
2022-09-01T19:16:42.791Z,44.05
2022-09-01T19:19:25.200Z,43.94
2022-09-01T19:21:55.749Z,44.01
2022-09-01T19:24:28.945Z,43.96
2022-09-01T19:27:04.566Z,43.81
2022-09-01T19:29:38.620Z,44.42
2022-09-01T19:32:10.113Z,44.29
2022-09-01T19:34:42.474Z,44.00
2022-09-01T19:37:11.245Z,44.07
2022-09-01T19:39:42.785Z,44.72
2022-09-01T19:42:17.162Z,45.19
2022-09-01T19:44:55.573Z,44.87
2022-09-01T19:47:30.825Z,44.50
2022-09-01T19:50:04.221Z,44.62
2022-09-01T19:52:39.317Z,45.10
2022-09-01T19:55:13.292Z,44.73
2022-09-01T19:57:45.918Z,45.14
2022-09-01T20:00:18.485Z,45.11
2022-09-01T20:02:51.240Z,45.58
2022-09-01T20:05:27.904Z,45.19
2022-09-01T20:07:59.523Z,45.35
2022-09-01T20:10:40.775Z,45.53
2022-09-01T20:13:25.039Z,46.27
2022-09-01T20:16:00.556Z,45.96
2022-09-01T20:18:31.875Z,46.65
2022-09-01T20:21:03.528Z,46.50
2022-09-01T20:23:36.588Z,47.50
2022-09-01T20:26:07.304Z,46.12
2022-09-01T20:28:46.368Z,46.18
2022-09-01T20:31:22.921Z,46.05
2022-09-01T20:33:56.065Z,46.41
2022-09-01T20:36:30.231Z,46.78
2022-09-01T20:39:19.266Z,46.74
2022-09-01T20:41:58.143Z,46.89
2022-09-01T20:44:36.562Z,47.17
2022-09-01T20:47:06.737Z,46.86
2022-09-01T20:49:37.172Z,47.17
2022-09-01T20:52:13.571Z,47.76
2022-09-01T20:54:50.107Z,47.53
2022-09-01T20:57:38.345Z,47.53
2022-09-01T21:00:10.516Z,47.41
2022-09-01T21:02:53.683Z,47.26
2022-09-01T21:05:36.123Z,47.02
2022-09-01T21:08:20.900Z,46.72
2022-09-01T21:10:55.030Z,46.81
2022-09-01T21:13:39.357Z,47.20
2022-09-01T21:16:13.419Z,47.19
2022-09-01T21:18:55.988Z,47.51
2022-09-01T21:21:35.309Z,47.04
2022-09-01T21:24:03.219Z,47.34
2022-09-01T21:26:31.182Z,47.73
2022-09-01T21:29:11.137Z,47.69
2022-09-01T21:31:38.800Z,47.72
2022-09-01T21:34:07.836Z,48.22
2022-09-01T21:36:35.519Z,47.95
2022-09-01T21:39:03.179Z,48.30
2022-09-01T21:41:30.825Z,48.54
2022-09-01T21:43:58.566Z,48.68
2022-09-01T21:46:30.597Z,48.42
2022-09-01T21:48:58.346Z,49.02
2022-09-01T21:51:27.870Z,49.45
2022-09-01T21:54:03.337Z,49.27
2022-09-01T21:56:31.659Z,49.83
2022-09-01T21:58:59.468Z,49.41
2022-09-01T22:01:31.101Z,49.88
2022-09-01T22:03:59.407Z,50.23
2022-09-01T22:06:28.915Z,49.85
2022-09-01T22:08:56.487Z,50.08
2022-09-01T22:11:24.249Z,50.70
2022-09-01T22:13:52.370Z,50.63
2022-09-01T22:16:21.525Z,50.95
2022-09-01T22:18:49.325Z,51.06
2022-09-01T22:21:18.137Z,51.19
2022-09-01T22:23:47.110Z,51.11
2022-09-01T22:26:21.406Z,51.73
2022-09-01T22:28:49.491Z,51.28
2022-09-01T22:31:19.666Z,51.60
2022-09-01T22:33:47.804Z,51.50
2022-09-01T22:36:20.576Z,51.64
2022-09-01T22:38:49.535Z,51.86
2022-09-01T22:41:20.015Z,52.07
2022-09-01T22:43:48.643Z,52.00
2022-09-01T22:46:19.431Z,51.97
2022-09-01T22:48:50.173Z,52.00
2022-09-01T22:51:18.351Z,52.59
2022-09-01T22:53:47.406Z,52.44
2022-09-01T22:56:20.278Z,52.74
2022-09-01T22:58:49.155Z,52.99
2022-09-01T23:01:20.261Z,52.82
2022-09-01T23:03:49.114Z,53.04
2022-09-01T23:06:27.511Z,53.06
2022-09-01T23:08:56.514Z,53.05
2022-09-01T23:11:26.122Z,53.31
2022-09-01T23:13:53.966Z,53.40
2022-09-01T23:16:23.324Z,53.59
2022-09-01T23:18:52.165Z,53.64
2022-09-01T23:21:23.174Z,53.63
2022-09-01T23:23:58.299Z,53.98
2022-09-01T23:26:29.038Z,53.85
2022-09-01T23:28:58.416Z,53.74
2022-09-01T23:31:29.037Z,55.06
2022-09-01T23:33:57.259Z,54.60
2022-09-01T23:36:27.777Z,54.49
2022-09-01T23:38:56.380Z,54.53
2022-09-01T23:41:29.305Z,54.43
2022-09-01T23:43:58.301Z,54.31
2022-09-01T23:46:29.721Z,53.90
2022-09-01T23:48:57.765Z,53.72
2022-09-01T23:51:26.098Z,53.66
2022-09-01T23:53:54.726Z,53.35
2022-09-01T23:56:24.763Z,53.53
2022-09-01T23:58:54.193Z,53.08
